PWSweather.com
Personal Weather Stations
Station Observations
WESTON01
WestonSuperMareGB BS22 8RT

WestonSuperMareGB BS22 8RT

Lat: 51.351508, Lon: -2.933373

Elevation: 15

Station Type: Fine Offset WH1080

http://www.westonweather.co.uk

High Low Average
Temperature 71.0°F21.7°C 59.5°F15.3°C 62.3°F16.8°C
Dew Point 64.8°F18.2°C 57.1°F13.9°C 59.4°F15.2°C
Winds 13.4 mph 21.6 kmh Calm Calm 7.0 mph SSW11.3 kmh SSW
Wind Gusts 21.4 mph34.4 kmh -- 11.0 mph17.7 kmh
Humidity 94% 76% 90%
Pressure 29.90 in1012.5 mb 29.67 in1004.7 mb -
Precipitation 0.62 in15.7 mm - -
Hour Temp Dew Point Humidity Winds Wind Gusts Pressure Precip Precip Rate Daily Precip Total
12:00 AM 60.5°F15.8°C 58.2°F14.6°C 92% 9.4 mph SSW15.1 kmh SSW 14.0 mph22.5 kmh 29.90 in1012.5 mb 0.21 in5.3 mm 0.00 in0.0 mm 0.21 in5.3 mm
12:05 AM 60.5°F15.8°C 58.2°F14.6°C 92% 8.0 mph SSW12.9 kmh SSW 14.3 mph23.0 kmh 29.90 in1012.5 mb 0.21 in5.3 mm 0.00 in0.0 mm 0.21 in5.3 mm
12:10 AM 60.5°F15.8°C 58.2°F14.6°C 92% 8.1 mph SSW13.0 kmh SSW 14.3 mph23.0 kmh 29.90 in1012.5 mb 0.17 in4.3 mm 0.00 in0.0 mm 0.21 in5.3 mm
12:15 AM 60.5°F15.8°C 58.2°F14.6°C 92% 7.5 mph S12.1 kmh S 14.0 mph22.5 kmh 29.90 in1012.5 mb 0.21 in5.3 mm 0.48 in12.2 mm 0.25 in6.4 mm
12:20 AM 60.5°F15.8°C 58.2°F14.6°C 92% 7.8 mph S12.6 kmh S 11.3 mph18.2 kmh 29.90 in1012.5 mb 0.17 in4.3 mm 0.00 in0.0 mm 0.25 in6.4 mm
12:25 AM 60.5°F15.8°C 58.2°F14.6°C 92% 8.4 mph S13.5 kmh S 11.6 mph18.7 kmh 29.90 in1012.5 mb 0.13 in3.3 mm 0.00 in0.0 mm 0.25 in6.4 mm
12:30 AM 60.5°F15.8°C 58.2°F14.6°C 92% 9.1 mph S14.6 kmh S 11.6 mph18.7 kmh 29.90 in1012.5 mb 0.13 in3.3 mm 0.00 in0.0 mm 0.25 in6.4 mm
12:35 AM 60.5°F15.8°C 58.2°F14.6°C 92% 9.5 mph S15.3 kmh S 14.0 mph22.5 kmh 29.87 in1011.5 mb 0.13 in3.3 mm 0.00 in0.0 mm 0.29 in7.4 mm
12:40 AM 60.5°F15.8°C 58.2°F14.6°C 92% 9.2 mph S14.8 kmh S 14.0 mph22.5 kmh 29.87 in1011.5 mb 0.13 in3.3 mm 0.00 in0.0 mm 0.29 in7.4 mm
12:45 AM 60.5°F15.8°C 58.2°F14.6°C 92% 10.7 mph SSW17.2 kmh SSW 18.1 mph29.1 kmh 29.87 in1011.5 mb 0.13 in3.3 mm 0.00 in0.0 mm 0.29 in7.4 mm
12:50 AM 60.5°F15.8°C 58.2°F14.6°C 92% 11.9 mph SSW19.2 kmh SSW 18.1 mph29.1 kmh 29.87 in1011.5 mb 0.12 in3.0 mm 0.00 in0.0 mm 0.33 in8.4 mm
12:55 AM 60.5°F15.8°C 58.2°F14.6°C 92% 10.2 mph SSW16.4 kmh SSW 14.6 mph23.5 kmh 29.87 in1011.5 mb 0.12 in3.0 mm 0.00 in0.0 mm 0.33 in8.4 mm
01:00 AM 60.5°F15.8°C 58.2°F14.6°C 92% 8.7 mph S14.0 kmh S 12.8 mph20.6 kmh 29.87 in1011.5 mb 0.12 in3.0 mm 0.00 in0.0 mm 0.33 in8.4 mm
01:05 AM 60.5°F15.8°C 58.2°F14.6°C 92% 10.0 mph S16.1 kmh S 17.6 mph28.3 kmh 29.87 in1011.5 mb 0.12 in3.0 mm 0.00 in0.0 mm 0.33 in8.4 mm
01:10 AM 60.3°F15.7°C 58.0°F14.4°C 92% 10.2 mph S16.4 kmh S 17.6 mph28.3 kmh 29.87 in1011.5 mb 0.12 in3.0 mm 0.00 in0.0 mm 0.33 in8.4 mm
01:15 AM 60.2°F15.7°C 57.8°F14.3°C 92% 9.2 mph S14.8 kmh S 13.1 mph21.1 kmh 29.87 in1011.5 mb 0.12 in3.0 mm 0.00 in0.0 mm 0.37 in9.4 mm
01:20 AM 60.2°F15.7°C 57.8°F14.3°C 92% 8.4 mph S13.5 kmh S 11.9 mph19.2 kmh 29.87 in1011.5 mb 0.12 in3.0 mm 0.00 in0.0 mm 0.37 in9.4 mm
01:25 AM 60.2°F15.7°C 57.8°F14.3°C 92% 8.3 mph SSW13.4 kmh SSW 14.6 mph23.5 kmh 29.87 in1011.5 mb 0.12 in3.0 mm 0.00 in0.0 mm 0.37 in9.4 mm
01:30 AM 60.2°F15.7°C 57.8°F14.3°C 92% 8.5 mph SSW13.7 kmh SSW 14.6 mph23.5 kmh 29.87 in1011.5 mb 0.12 in3.0 mm 0.00 in0.0 mm 0.37 in9.4 mm
01:35 AM 60.2°F15.7°C 57.8°F14.3°C 92% 8.9 mph SSW14.3 kmh SSW 13.7 mph22.0 kmh 29.87 in1011.5 mb 0.13 in3.3 mm 0.12 in3.0 mm 0.42 in10.7 mm
01:40 AM 60.0°F15.6°C 57.7°F14.3°C 92% 8.7 mph SSW14.0 kmh SSW 13.7 mph22.0 kmh 29.87 in1011.5 mb 0.13 in3.3 mm 0.00 in0.0 mm 0.42 in10.7 mm
01:45 AM 59.8°F15.4°C 57.5°F14.2°C 92% 8.3 mph S13.4 kmh S 14.3 mph23.0 kmh 29.87 in1011.5 mb 0.13 in3.3 mm 0.00 in0.0 mm 0.42 in10.7 mm
01:50 AM 59.8°F15.4°C 57.5°F14.2°C 92% 9.0 mph S14.5 kmh S 14.3 mph23.0 kmh 29.87 in1011.5 mb 0.09 in2.3 mm 0.00 in0.0 mm 0.42 in10.7 mm
01:55 AM 59.8°F15.4°C 57.5°F14.2°C 92% 8.6 mph SSW13.8 kmh SSW 14.3 mph23.0 kmh 29.87 in1011.5 mb 0.09 in2.3 mm 0.00 in0.0 mm 0.42 in10.7 mm
02:00 AM 59.8°F15.4°C 57.5°F14.2°C 92% 9.4 mph SSW15.1 kmh SSW 14.6 mph23.5 kmh 29.87 in1011.5 mb 0.09 in2.3 mm 0.00 in0.0 mm 0.42 in10.7 mm
02:05 AM 59.8°F15.4°C 57.5°F14.2°C 92% 9.9 mph S15.9 kmh S 17.0 mph27.4 kmh 29.87 in1011.5 mb 0.09 in2.3 mm 0.00 in0.0 mm 0.42 in10.7 mm
02:10 AM 59.8°F15.4°C 57.5°F14.2°C 92% 10.4 mph S16.7 kmh S 17.0 mph27.4 kmh 29.84 in1010.5 mb 0.09 in2.3 mm 0.00 in0.0 mm 0.42 in10.7 mm
02:15 AM 59.8°F15.4°C 57.5°F14.2°C 92% 9.5 mph S15.3 kmh S 14.0 mph22.5 kmh 29.84 in1010.5 mb 0.05 in1.3 mm 0.00 in0.0 mm 0.42 in10.7 mm
02:20 AM 59.8°F15.4°C 57.5°F14.2°C 92% 9.2 mph S14.8 kmh S 13.1 mph21.1 kmh 29.84 in1010.5 mb 0.05 in1.3 mm 0.00 in0.0 mm 0.42 in10.7 mm
02:25 AM 59.8°F15.4°C 57.5°F14.2°C 92% 7.9 mph S12.7 kmh S 11.6 mph18.7 kmh 29.84 in1010.5 mb 0.05 in1.3 mm 0.00 in0.0 mm 0.42 in10.7 mm
02:30 AM 59.8°F15.4°C 57.5°F14.2°C 92% 7.4 mph SSW11.9 kmh SSW 10.1 mph16.3 kmh 29.84 in1010.5 mb 0.05 in1.3 mm 0.00 in0.0 mm 0.42 in10.7 mm
02:35 AM 59.8°F15.4°C 57.5°F14.2°C 92% 8.1 mph SSW13.0 kmh SSW 10.1 mph16.3 kmh 29.84 in1010.5 mb 0.00 in0.0 mm 0.00 in0.0 mm 0.42 in10.7 mm
02:40 AM 59.8°F15.4°C 57.5°F14.2°C 92% 7.4 mph SSW11.9 kmh SSW 17.0 mph27.4 kmh 29.84 in1010.5 mb 0.00 in0.0 mm 0.00 in0.0 mm 0.42 in10.7 mm
02:45 AM 59.8°F15.4°C 57.5°F14.2°C 92% 8.0 mph SSW12.9 kmh SSW 17.0 mph27.4 kmh 29.84 in1010.5 mb 0.00 in0.0 mm 0.00 in0.0 mm 0.42 in10.7 mm
02:50 AM 59.8°F15.4°C 57.5°F14.2°C 92% 10.2 mph SSW16.4 kmh SSW 17.0 mph27.4 kmh 29.84 in1010.5 mb 0.00 in0.0 mm 0.00 in0.0 mm 0.42 in10.7 mm
02:55 AM 59.8°F15.4°C 57.8°F14.3°C 93% 12.4 mph SW20.0 kmh SW 17.6 mph28.3 kmh 29.84 in1010.5 mb 0.00 in0.0 mm 0.00 in0.0 mm 0.42 in10.7 mm
03:00 AM 59.8°F15.4°C 57.5°F14.2°C 92% 12.1 mph SW19.5 kmh SW 17.6 mph28.3 kmh 29.84 in1010.5 mb 0.00 in0.0 mm 0.00 in0.0 mm 0.42 in10.7 mm
03:05 AM 59.6°F15.3°C 57.6°F14.2°C 93% 10.7 mph SW17.2 kmh SW 16.7 mph26.9 kmh 29.84 in1010.5 mb 0.00 in0.0 mm 0.00 in0.0 mm 0.42 in10.7 mm
03:10 AM 59.6°F15.3°C 57.6°F14.2°C 93% 10.5 mph SSW16.9 kmh SSW 16.7 mph26.9 kmh 29.81 in1009.5 mb 0.00 in0.0 mm 0.00 in0.0 mm 0.42 in10.7 mm
03:15 AM 59.6°F15.3°C 57.6°F14.2°C 93% 8.8 mph SSW14.2 kmh SSW 13.4 mph21.6 kmh 29.81 in1009.5 mb 0.00 in0.0 mm 0.00 in0.0 mm 0.42 in10.7 mm
03:20 AM 59.6°F15.3°C 57.6°F14.2°C 93% 9.7 mph S15.6 kmh S 14.3 mph23.0 kmh 29.81 in1009.5 mb 0.00 in0.0 mm 0.00 in0.0 mm 0.42 in10.7 mm
03:25 AM 59.6°F15.3°C 57.6°F14.2°C 93% 10.7 mph S17.2 kmh S 14.3 mph23.0 kmh 29.81 in1009.5 mb 0.00 in0.0 mm 0.00 in0.0 mm 0.42 in10.7 mm
03:30 AM 59.8°F15.4°C 57.8°F14.3°C 93% 9.2 mph SSW14.8 kmh SSW 11.6 mph18.7 kmh 29.81 in1009.5 mb 0.00 in0.0 mm 0.00 in0.0 mm 0.42 in10.7 mm
03:35 AM 59.8°F15.4°C 57.8°F14.3°C 93% 11.6 mph SSW18.7 kmh SSW 20.2 mph32.5 kmh 29.81 in1009.5 mb 0.00 in0.0 mm 0.00 in0.0 mm 0.42 in10.7 mm
03:40 AM 59.8°F15.4°C 57.8°F14.3°C 93% 13.2 mph SSW21.2 kmh SSW 20.2 mph32.5 kmh 29.81 in1009.5 mb 0.00 in0.0 mm 0.00 in0.0 mm 0.42 in10.7 mm
03:45 AM 59.8°F15.4°C 57.8°F14.3°C 93% 11.8 mph S19.0 kmh S 14.3 mph23.0 kmh 29.81 in1009.5 mb 0.00 in0.0 mm 0.00 in0.0 mm 0.42 in10.7 mm
03:50 AM 59.8°F15.4°C 57.8°F14.3°C 93% 11.0 mph S17.7 kmh S 13.4 mph21.6 kmh 29.81 in1009.5 mb 0.00 in0.0 mm 0.00 in0.0 mm 0.42 in10.7 mm
03:55 AM 59.8°F15.4°C 57.8°F14.3°C 93% 12.6 mph SSW20.3 kmh SSW 16.1 mph25.9 kmh 29.81 in1009.5 mb 0.00 in0.0 mm 0.00 in0.0 mm 0.42 in10.7 mm
04:00 AM 59.8°F15.4°C 57.8°F14.3°C 93% 12.9 mph SSW20.8 kmh SSW 16.1 mph25.9 kmh 29.81 in1009.5 mb 0.00 in0.0 mm 0.00 in0.0 mm 0.42 in10.7 mm
04:05 AM 59.8°F15.4°C 57.8°F14.3°C 93% 12.5 mph SSW20.1 kmh SSW 14.6 mph23.5 kmh 29.81 in1009.5 mb 0.03 in0.8 mm 0.36 in9.1 mm 0.45 in11.4 mm
04:10 AM 59.8°F15.4°C 57.8°F14.3°C 93% 11.7 mph SSW18.8 kmh SSW 14.6 mph23.5 kmh 29.81 in1009.5 mb 0.03 in0.8 mm 0.00 in0.0 mm 0.45 in11.4 mm
04:15 AM 59.8°F15.4°C 57.8°F14.3°C 93% 11.1 mph SSW17.9 kmh SSW 14.6 mph23.5 kmh 29.81 in1009.5 mb 0.03 in0.8 mm 0.00 in0.0 mm 0.45 in11.4 mm
04:20 AM 59.8°F15.4°C 57.8°F14.3°C 93% 11.7 mph S18.8 kmh S 14.6 mph23.5 kmh 29.81 in1009.5 mb 0.03 in0.8 mm 0.00 in0.0 mm 0.45 in11.4 mm
04:25 AM 59.8°F15.4°C 57.8°F14.3°C 93% 10.6 mph S17.1 kmh S 13.4 mph21.6 kmh 29.81 in1009.5 mb 0.03 in0.8 mm 0.00 in0.0 mm 0.45 in11.4 mm
04:35 AM 59.6°F15.3°C 57.6°F14.2°C 93% 10.2 mph S16.4 kmh S 13.1 mph21.1 kmh 29.81 in1009.5 mb 0.03 in0.8 mm 0.00 in0.0 mm 0.45 in11.4 mm
04:40 AM 59.6°F15.3°C 57.6°F14.2°C 93% 10.6 mph S17.1 kmh S 13.1 mph21.1 kmh 29.81 in1009.5 mb 0.03 in0.8 mm 0.00 in0.0 mm 0.45 in11.4 mm
04:45 AM 59.6°F15.3°C 57.6°F14.2°C 93% 10.3 mph SSW16.6 kmh SSW 13.1 mph21.1 kmh 29.81 in1009.5 mb 0.03 in0.8 mm 0.00 in0.0 mm 0.45 in11.4 mm
04:50 AM 59.6°F15.3°C 57.6°F14.2°C 93% 9.2 mph S14.8 kmh S 14.3 mph23.0 kmh 29.78 in1008.5 mb 0.03 in0.8 mm 0.00 in0.0 mm 0.45 in11.4 mm
04:55 AM 59.5°F15.3°C 57.4°F14.1°C 93% 7.9 mph S12.7 kmh S 14.3 mph23.0 kmh 29.78 in1008.5 mb 0.03 in0.8 mm 0.00 in0.0 mm 0.45 in11.4 mm
05:00 AM 59.5°F15.3°C 57.4°F14.1°C 93% 7.7 mph S12.4 kmh S 17.9 mph28.8 kmh 29.78 in1008.5 mb 0.03 in0.8 mm 0.00 in0.0 mm 0.45 in11.4 mm
05:05 AM 59.5°F15.3°C 57.4°F14.1°C 93% 8.2 mph S13.2 kmh S 17.9 mph28.8 kmh 29.78 in1008.5 mb 0.00 in0.0 mm 0.00 in0.0 mm 0.45 in11.4 mm
05:10 AM 59.5°F15.3°C 57.4°F14.1°C 93% 8.7 mph S14.0 kmh S 14.6 mph23.5 kmh 29.78 in1008.5 mb 0.00 in0.0 mm 0.00 in0.0 mm 0.45 in11.4 mm
05:15 AM 59.5°F15.3°C 57.4°F14.1°C 93% 9.8 mph S15.8 kmh S 14.6 mph23.5 kmh 29.78 in1008.5 mb 0.00 in0.0 mm 0.00 in0.0 mm 0.45 in11.4 mm
05:20 AM 59.6°F15.3°C 57.6°F14.2°C 93% 11.0 mph S17.7 kmh S 20.2 mph32.5 kmh 29.78 in1008.5 mb 0.00 in0.0 mm 0.00 in0.0 mm 0.45 in11.4 mm
05:25 AM 59.6°F15.3°C 57.6°F14.2°C 93% 9.5 mph S15.3 kmh S 20.2 mph32.5 kmh 29.78 in1008.5 mb 0.00 in0.0 mm 0.00 in0.0 mm 0.45 in11.4 mm
05:30 AM 59.6°F15.3°C 57.6°F14.2°C 93% 7.6 mph S12.2 kmh S 11.6 mph18.7 kmh 29.78 in1008.5 mb 0.00 in0.0 mm 0.00 in0.0 mm 0.45 in11.4 mm
05:35 AM 59.6°F15.3°C 57.6°F14.2°C 93% 7.7 mph S12.4 kmh S 11.3 mph18.2 kmh 29.78 in1008.5 mb 0.00 in0.0 mm 0.00 in0.0 mm 0.45 in11.4 mm
05:40 AM 59.6°F15.3°C 57.6°F14.2°C 93% 9.0 mph S14.5 kmh S 17.0 mph27.4 kmh 29.78 in1008.5 mb 0.00 in0.0 mm 0.00 in0.0 mm 0.45 in11.4 mm
05:45 AM 59.8°F15.4°C 57.8°F14.3°C 93% 10.3 mph S16.6 kmh S 17.0 mph27.4 kmh 29.78 in1008.5 mb 0.00 in0.0 mm 0.00 in0.0 mm 0.45 in11.4 mm
05:50 AM 59.8°F15.4°C 57.8°F14.3°C 93% 9.4 mph S15.1 kmh S 13.7 mph22.0 kmh 29.78 in1008.5 mb 0.00 in0.0 mm 0.00 in0.0 mm 0.45 in11.4 mm
05:55 AM 59.8°F15.4°C 57.8°F14.3°C 93% 8.4 mph SSW13.5 kmh SSW 14.6 mph23.5 kmh 29.78 in1008.5 mb 0.00 in0.0 mm 0.00 in0.0 mm 0.45 in11.4 mm
06:00 AM 59.8°F15.4°C 57.8°F14.3°C 93% 9.6 mph S15.4 kmh S 14.6 mph23.5 kmh 29.78 in1008.5 mb 0.00 in0.0 mm 0.00 in0.0 mm 0.45 in11.4 mm
06:05 AM 59.8°F15.4°C 57.8°F14.3°C 93% 9.8 mph S15.8 kmh S 14.6 mph23.5 kmh 29.78 in1008.5 mb 0.00 in0.0 mm 0.00 in0.0 mm 0.45 in11.4 mm
06:10 AM 59.8°F15.4°C 57.8°F14.3°C 93% 10.3 mph S16.6 kmh S 16.7 mph26.9 kmh 29.78 in1008.5 mb 0.00 in0.0 mm 0.00 in0.0 mm 0.45 in11.4 mm
06:15 AM 60.0°F15.6°C 58.0°F14.4°C 93% 9.6 mph S15.4 kmh S 16.7 mph26.9 kmh 29.78 in1008.5 mb 0.05 in1.3 mm 0.60 in15.2 mm 0.50 in12.7 mm
06:20 AM 60.0°F15.6°C 58.0°F14.4°C 93% 8.4 mph S13.5 kmh S 11.3 mph18.2 kmh 29.78 in1008.5 mb 0.05 in1.3 mm 0.00 in0.0 mm 0.50 in12.7 mm
06:25 AM 60.0°F15.6°C 58.0°F14.4°C 93% 9.7 mph S15.6 kmh S 13.4 mph21.6 kmh 29.78 in1008.5 mb 0.05 in1.3 mm 0.00 in0.0 mm 0.50 in12.7 mm
06:30 AM 60.0°F15.6°C 58.0°F14.4°C 93% 9.5 mph S15.3 kmh S 14.6 mph23.5 kmh 29.78 in1008.5 mb 0.05 in1.3 mm 0.00 in0.0 mm 0.50 in12.7 mm
06:35 AM 60.0°F15.6°C 58.0°F14.4°C 93% 8.8 mph S14.2 kmh S 17.3 mph27.8 kmh 29.78 in1008.5 mb 0.05 in1.3 mm 0.00 in0.0 mm 0.50 in12.7 mm
06:40 AM 60.0°F15.6°C 58.0°F14.4°C 93% 8.5 mph S13.7 kmh S 17.3 mph27.8 kmh 29.78 in1008.5 mb 0.05 in1.3 mm 0.00 in0.0 mm 0.50 in12.7 mm
06:45 AM 60.2°F15.7°C 58.1°F14.5°C 93% 8.4 mph SSW13.5 kmh SSW 11.6 mph18.7 kmh 29.78 in1008.5 mb 0.05 in1.3 mm 0.00 in0.0 mm 0.50 in12.7 mm
06:50 AM 60.2°F15.7°C 58.1°F14.5°C 93% 8.9 mph S14.3 kmh S 13.7 mph22.0 kmh 29.78 in1008.5 mb 0.05 in1.3 mm 0.00 in0.0 mm 0.50 in12.7 mm
06:55 AM 60.2°F15.7°C 58.1°F14.5°C 93% 8.4 mph S13.5 kmh S 13.7 mph22.0 kmh 29.78 in1008.5 mb 0.05 in1.3 mm 0.00 in0.0 mm 0.50 in12.7 mm
07:00 AM 60.2°F15.7°C 58.1°F14.5°C 93% 8.9 mph S14.3 kmh S 13.7 mph22.0 kmh 29.78 in1008.5 mb 0.05 in1.3 mm 0.00 in0.0 mm 0.50 in12.7 mm
07:05 AM 60.2°F15.7°C 58.1°F14.5°C 93% 8.1 mph SSW13.0 kmh SSW 10.7 mph17.2 kmh 29.78 in1008.5 mb 0.05 in1.3 mm 0.00 in0.0 mm 0.50 in12.7 mm
07:10 AM 60.2°F15.7°C 58.1°F14.5°C 93% 7.3 mph S11.7 kmh S 10.1 mph16.3 kmh 29.78 in1008.5 mb 0.05 in1.3 mm 0.00 in0.0 mm 0.50 in12.7 mm
07:15 AM 60.2°F15.7°C 58.1°F14.5°C 93% 7.8 mph S12.6 kmh S 11.6 mph18.7 kmh 29.78 in1008.5 mb 0.00 in0.0 mm 0.00 in0.0 mm 0.50 in12.7 mm
07:20 AM 60.2°F15.7°C 58.1°F14.5°C 93% 8.0 mph S12.9 kmh S 12.8 mph20.6 kmh 29.75 in1007.5 mb 0.00 in0.0 mm 0.00 in0.0 mm 0.50 in12.7 mm
07:25 AM 60.3°F15.7°C 58.3°F14.6°C 93% 7.5 mph S12.1 kmh S 12.8 mph20.6 kmh 29.75 in1007.5 mb 0.00 in0.0 mm 0.00 in0.0 mm 0.50 in12.7 mm
07:30 AM 60.5°F15.8°C 58.8°F14.9°C 94% 8.4 mph S13.5 kmh S 13.4 mph21.6 kmh 29.75 in1007.5 mb 0.00 in0.0 mm 0.00 in0.0 mm 0.50 in12.7 mm
07:35 AM 60.5°F15.8°C 58.8°F14.9°C 94% 9.5 mph S15.3 kmh S 15.2 mph24.5 kmh 29.75 in1007.5 mb 0.00 in0.0 mm 0.00 in0.0 mm 0.50 in12.7 mm
07:40 AM 60.7°F15.9°C 59.0°F15.0°C 94% 9.5 mph S15.3 kmh S 15.2 mph24.5 kmh 29.75 in1007.5 mb 0.00 in0.0 mm 0.00 in0.0 mm 0.50 in12.7 mm
07:45 AM 60.7°F15.9°C 59.0°F15.0°C 94% 9.7 mph S15.6 kmh S 15.2 mph24.5 kmh 29.75 in1007.5 mb 0.00 in0.0 mm 0.00 in0.0 mm 0.50 in12.7 mm
07:50 AM 60.7°F15.9°C 59.0°F15.0°C 94% 8.7 mph S14.0 kmh S 12.8 mph20.6 kmh 29.75 in1007.5 mb 0.00 in0.0 mm 0.00 in0.0 mm 0.50 in12.7 mm
07:55 AM 60.9°F16.1°C 59.2°F15.1°C 94% 8.2 mph SSW13.2 kmh SSW 16.1 mph25.9 kmh 29.75 in1007.5 mb 0.00 in0.0 mm 0.00 in0.0 mm 0.50 in12.7 mm
08:00 AM 61.1°F16.2°C 59.3°F15.2°C 94% 8.0 mph SW12.9 kmh SW 16.1 mph25.9 kmh 29.75 in1007.5 mb 0.00 in0.0 mm 0.00 in0.0 mm 0.50 in12.7 mm
08:05 AM 61.1°F16.2°C 59.3°F15.2°C 94% 7.9 mph SW12.7 kmh SW 13.1 mph21.1 kmh 29.75 in1007.5 mb 0.00 in0.0 mm 0.00 in0.0 mm 0.50 in12.7 mm
08:10 AM 61.3°F16.3°C 59.5°F15.3°C 94% 8.9 mph SSW14.3 kmh SSW 13.1 mph21.1 kmh 29.75 in1007.5 mb 0.00 in0.0 mm 0.00 in0.0 mm 0.50 in12.7 mm
08:15 AM 61.3°F16.3°C 59.5°F15.3°C 94% 9.6 mph S15.4 kmh S 12.8 mph20.6 kmh 29.75 in1007.5 mb 0.00 in0.0 mm 0.00 in0.0 mm 0.50 in12.7 mm
08:20 AM 61.4°F16.3°C 59.7°F15.4°C 94% 8.4 mph S13.5 kmh S 13.1 mph21.1 kmh 29.75 in1007.5 mb 0.00 in0.0 mm 0.00 in0.0 mm 0.50 in12.7 mm
08:25 AM 61.4°F16.3°C 59.7°F15.4°C 94% 5.9 mph S9.5 kmh S 13.1 mph21.1 kmh 29.75 in1007.5 mb 0.00 in0.0 mm 0.00 in0.0 mm 0.50 in12.7 mm
08:30 AM 61.6°F16.4°C 59.9°F15.5°C 94% 4.9 mph S7.9 kmh S 11.3 mph18.2 kmh 29.75 in1007.5 mb 0.00 in0.0 mm 0.00 in0.0 mm 0.50 in12.7 mm
08:35 AM 61.6°F16.4°C 59.9°F15.5°C 94% 5.5 mph S8.9 kmh S 9.5 mph15.3 kmh 29.75 in1007.5 mb 0.00 in0.0 mm 0.00 in0.0 mm 0.50 in12.7 mm
08:40 AM 61.8°F16.6°C 60.0°F15.6°C 94% 5.9 mph SSW9.5 kmh SSW 9.5 mph15.3 kmh 29.75 in1007.5 mb 0.00 in0.0 mm 0.00 in0.0 mm 0.50 in12.7 mm
08:45 AM 61.8°F16.6°C 60.0°F15.6°C 94% 6.8 mph SSW10.9 kmh SSW 8.6 mph13.8 kmh 29.75 in1007.5 mb 0.00 in0.0 mm 0.00 in0.0 mm 0.50 in12.7 mm
08:50 AM 62.0°F16.7°C 60.2°F15.7°C 94% 7.6 mph S12.2 kmh S 10.7 mph17.2 kmh 29.75 in1007.5 mb 0.00 in0.0 mm 0.00 in0.0 mm 0.50 in12.7 mm
08:55 AM 62.0°F16.7°C 60.2°F15.7°C 94% 7.6 mph S12.2 kmh S 10.7 mph17.2 kmh 29.75 in1007.5 mb 0.00 in0.0 mm 0.00 in0.0 mm 0.50 in12.7 mm
09:00 AM 62.2°F16.8°C 60.4°F15.8°C 94% 7.6 mph SSW12.2 kmh SSW 12.8 mph20.6 kmh 29.75 in1007.5 mb 0.00 in0.0 mm 0.00 in0.0 mm 0.50 in12.7 mm
09:05 AM 62.3°F16.8°C 60.6°F15.9°C 94% 8.7 mph S14.0 kmh S 14.0 mph22.5 kmh 29.75 in1007.5 mb 0.00 in0.0 mm 0.00 in0.0 mm 0.50 in12.7 mm
09:10 AM 62.3°F16.8°C 60.6°F15.9°C 94% 10.1 mph SSW16.3 kmh SSW 14.0 mph22.5 kmh 29.73 in1006.8 mb 0.00 in0.0 mm 0.00 in0.0 mm 0.50 in12.7 mm
09:15 AM 62.3°F16.8°C 60.6°F15.9°C 94% 9.8 mph SSW15.8 kmh SSW 13.7 mph22.0 kmh 29.73 in1006.8 mb 0.00 in0.0 mm 0.00 in0.0 mm 0.50 in12.7 mm
09:20 AM 62.3°F16.8°C 60.6°F15.9°C 94% 9.0 mph S14.5 kmh S 13.1 mph21.1 kmh 29.75 in1007.5 mb 0.04 in1.0 mm 0.48 in12.2 mm 0.54 in13.7 mm
09:25 AM 62.3°F16.8°C 60.6°F15.9°C 94% 8.9 mph S14.3 kmh S 14.6 mph23.5 kmh 29.75 in1007.5 mb 0.04 in1.0 mm 0.00 in0.0 mm 0.54 in13.7 mm
09:30 AM 62.5°F16.9°C 60.8°F16.0°C 94% 8.8 mph SSW14.2 kmh SSW 14.6 mph23.5 kmh 29.75 in1007.5 mb 0.04 in1.0 mm 0.00 in0.0 mm 0.54 in13.7 mm
09:35 AM 62.5°F16.9°C 60.8°F16.0°C 94% 8.5 mph S13.7 kmh S 11.6 mph18.7 kmh 29.75 in1007.5 mb 0.04 in1.0 mm 0.00 in0.0 mm 0.54 in13.7 mm
09:40 AM 62.5°F16.9°C 60.8°F16.0°C 94% 9.2 mph S14.8 kmh S 14.0 mph22.5 kmh 29.75 in1007.5 mb 0.04 in1.0 mm 0.00 in0.0 mm 0.54 in13.7 mm
09:45 AM 62.5°F16.9°C 60.8°F16.0°C 94% 9.2 mph S14.8 kmh S 14.0 mph22.5 kmh 29.75 in1007.5 mb 0.04 in1.0 mm 0.00 in0.0 mm 0.54 in13.7 mm
09:50 AM 62.3°F16.8°C 60.6°F15.9°C 94% 9.8 mph S15.8 kmh S 14.0 mph22.5 kmh 29.75 in1007.5 mb 0.04 in1.0 mm 0.00 in0.0 mm 0.54 in13.7 mm
09:55 AM 62.3°F16.8°C 60.6°F15.9°C 94% 10.6 mph S17.1 kmh S 14.0 mph22.5 kmh 29.75 in1007.5 mb 0.04 in1.0 mm 0.00 in0.0 mm 0.54 in13.7 mm
10:00 AM 62.3°F16.8°C 60.6°F15.9°C 94% 9.8 mph S15.8 kmh S 13.1 mph21.1 kmh 29.75 in1007.5 mb 0.04 in1.0 mm 0.00 in0.0 mm 0.54 in13.7 mm
10:05 AM 62.5°F16.9°C 60.8°F16.0°C 94% 8.8 mph S14.2 kmh S 11.6 mph18.7 kmh 29.75 in1007.5 mb 0.04 in1.0 mm 0.00 in0.0 mm 0.54 in13.7 mm
10:10 AM 62.5°F16.9°C 60.8°F16.0°C 94% 8.6 mph S13.8 kmh S 11.6 mph18.7 kmh 29.75 in1007.5 mb 0.04 in1.0 mm 0.00 in0.0 mm 0.54 in13.7 mm
10:15 AM 62.5°F16.9°C 60.8°F16.0°C 94% 8.3 mph S13.4 kmh S 11.6 mph18.7 kmh 29.75 in1007.5 mb 0.04 in1.0 mm 0.00 in0.0 mm 0.54 in13.7 mm
10:20 AM 62.5°F16.9°C 60.8°F16.0°C 94% 8.9 mph S14.3 kmh S 14.3 mph23.0 kmh 29.75 in1007.5 mb 0.00 in0.0 mm 0.00 in0.0 mm 0.54 in13.7 mm
10:25 AM 62.5°F16.9°C 60.8°F16.0°C 94% 9.2 mph S14.8 kmh S 14.3 mph23.0 kmh 29.75 in1007.5 mb 0.00 in0.0 mm 0.00 in0.0 mm 0.54 in13.7 mm
10:30 AM 62.3°F16.8°C 60.6°F15.9°C 94% 9.4 mph SSW15.1 kmh SSW 20.2 mph32.5 kmh 29.75 in1007.5 mb 0.00 in0.0 mm 0.00 in0.0 mm 0.54 in13.7 mm
10:35 AM 62.3°F16.8°C 60.6°F15.9°C 94% 9.3 mph SSW15.0 kmh SSW 20.2 mph32.5 kmh 29.75 in1007.5 mb 0.00 in0.0 mm 0.00 in0.0 mm 0.54 in13.7 mm
10:40 AM 62.2°F16.8°C 60.1°F15.6°C 93% 8.4 mph SSW13.5 kmh SSW 17.3 mph27.8 kmh 29.75 in1007.5 mb 0.00 in0.0 mm 0.00 in0.0 mm 0.54 in13.7 mm
10:45 AM 62.0°F16.7°C 59.9°F15.5°C 93% 8.3 mph SSW13.4 kmh SSW 11.3 mph18.2 kmh 29.75 in1007.5 mb 0.00 in0.0 mm 0.00 in0.0 mm 0.54 in13.7 mm
10:50 AM 62.0°F16.7°C 59.9°F15.5°C 93% 8.6 mph S13.8 kmh S 17.0 mph27.4 kmh 29.75 in1007.5 mb 0.00 in0.0 mm 0.00 in0.0 mm 0.54 in13.7 mm
10:55 AM 61.8°F16.6°C 59.7°F15.4°C 93% 8.9 mph S14.3 kmh S 17.0 mph27.4 kmh 29.75 in1007.5 mb 0.00 in0.0 mm 0.00 in0.0 mm 0.54 in13.7 mm
11:00 AM 61.8°F16.6°C 59.7°F15.4°C 93% 7.0 mph S11.3 kmh S 11.6 mph18.7 kmh 29.75 in1007.5 mb 0.00 in0.0 mm 0.00 in0.0 mm 0.54 in13.7 mm
11:05 AM 61.8°F16.6°C 59.7°F15.4°C 93% 7.8 mph S12.6 kmh S 11.3 mph18.2 kmh 29.75 in1007.5 mb 0.00 in0.0 mm 0.00 in0.0 mm 0.54 in13.7 mm
11:10 AM 62.0°F16.7°C 60.2°F15.7°C 94% 8.2 mph S13.2 kmh S 11.3 mph18.2 kmh 29.75 in1007.5 mb 0.00 in0.0 mm 0.00 in0.0 mm 0.54 in13.7 mm
11:15 AM 62.0°F16.7°C 59.9°F15.5°C 93% 6.8 mph SSW10.9 kmh SSW 10.4 mph16.7 kmh 29.75 in1007.5 mb 0.00 in0.0 mm 0.00 in0.0 mm 0.54 in13.7 mm
11:20 AM 61.8°F16.6°C 59.7°F15.4°C 93% 6.4 mph SSW10.3 kmh SSW 11.3 mph18.2 kmh 29.75 in1007.5 mb 0.00 in0.0 mm 0.00 in0.0 mm 0.54 in13.7 mm
11:25 AM 61.8°F16.6°C 59.7°F15.4°C 93% 7.0 mph SSW11.3 kmh SSW 14.0 mph22.5 kmh 29.75 in1007.5 mb 0.00 in0.0 mm 0.00 in0.0 mm 0.54 in13.7 mm
11:30 AM 61.8°F16.6°C 59.7°F15.4°C 93% 8.1 mph SSW13.0 kmh SSW 14.0 mph22.5 kmh 29.75 in1007.5 mb 0.00 in0.0 mm 0.00 in0.0 mm 0.54 in13.7 mm
11:35 AM 61.8°F16.6°C 60.0°F15.6°C 94% 8.2 mph SSW13.2 kmh SSW 11.6 mph18.7 kmh 29.75 in1007.5 mb 0.00 in0.0 mm 0.00 in0.0 mm 0.54 in13.7 mm
11:40 AM 61.8°F16.6°C 60.0°F15.6°C 94% 7.3 mph SSW11.7 kmh SSW 9.8 mph15.8 kmh 29.75 in1007.5 mb 0.00 in0.0 mm 0.00 in0.0 mm 0.54 in13.7 mm
11:45 AM 61.6°F16.4°C 59.9°F15.5°C 94% 8.5 mph S13.7 kmh S 12.5 mph20.1 kmh 29.75 in1007.5 mb 0.00 in0.0 mm 0.00 in0.0 mm 0.54 in13.7 mm
11:50 AM 61.6°F16.4°C 59.9°F15.5°C 94% 9.6 mph S15.4 kmh S 13.4 mph21.6 kmh 29.75 in1007.5 mb 0.00 in0.0 mm 0.00 in0.0 mm 0.54 in13.7 mm
11:55 AM 61.6°F16.4°C 59.9°F15.5°C 94% 8.7 mph S14.0 kmh S 13.4 mph21.6 kmh 29.75 in1007.5 mb 0.00 in0.0 mm 0.00 in0.0 mm 0.54 in13.7 mm
12:00 PM 62.0°F16.7°C 60.2°F15.7°C 94% 9.2 mph SSW14.8 kmh SSW 13.1 mph21.1 kmh 29.75 in1007.5 mb 0.00 in0.0 mm 0.00 in0.0 mm 0.54 in13.7 mm
12:05 PM 62.2°F16.8°C 60.4°F15.8°C 94% 9.8 mph SSW15.8 kmh SSW 13.1 mph21.1 kmh 29.73 in1006.8 mb 0.00 in0.0 mm 0.00 in0.0 mm 0.54 in13.7 mm
12:10 PM 62.5°F16.9°C 60.8°F16.0°C 94% 9.0 mph SSW14.5 kmh SSW 16.4 mph26.4 kmh 29.73 in1006.8 mb 0.00 in0.0 mm 0.00 in0.0 mm 0.54 in13.7 mm
12:15 PM 63.0°F17.2°C 61.3°F16.3°C 94% 8.5 mph S13.7 kmh S 16.4 mph26.4 kmh 29.73 in1006.8 mb 0.00 in0.0 mm 0.00 in0.0 mm 0.54 in13.7 mm
12:20 PM 63.2°F17.3°C 61.5°F16.4°C 94% 12.4 mph S20.0 kmh S 21.4 mph34.4 kmh 29.73 in1006.8 mb 0.00 in0.0 mm 0.00 in0.0 mm 0.54 in13.7 mm
12:25 PM 63.4°F17.4°C 61.7°F16.5°C 94% 13.4 mph S21.6 kmh S 21.4 mph34.4 kmh 29.73 in1006.8 mb 0.00 in0.0 mm 0.00 in0.0 mm 0.54 in13.7 mm
12:30 PM 63.6°F17.6°C 61.5°F16.4°C 93% 11.1 mph S17.9 kmh S 17.0 mph27.4 kmh 29.73 in1006.8 mb 0.00 in0.0 mm 0.00 in0.0 mm 0.54 in13.7 mm
12:35 PM 63.8°F17.7°C 61.7°F16.5°C 93% 10.9 mph SSW17.5 kmh SSW 17.0 mph27.4 kmh 29.73 in1006.8 mb 0.00 in0.0 mm 0.00 in0.0 mm 0.54 in13.7 mm
12:40 PM 64.1°F17.8°C 62.1°F16.7°C 93% 9.0 mph SSW14.5 kmh SSW 12.2 mph19.6 kmh 29.73 in1006.8 mb 0.00 in0.0 mm 0.00 in0.0 mm 0.54 in13.7 mm
12:45 PM 64.3°F17.9°C 62.2°F16.8°C 93% 7.3 mph SSW11.7 kmh SSW 11.6 mph18.7 kmh 29.73 in1006.8 mb 0.00 in0.0 mm 0.00 in0.0 mm 0.54 in13.7 mm
12:50 PM 64.5°F18.1°C 62.4°F16.9°C 93% 6.8 mph SSW10.9 kmh SSW 10.1 mph16.3 kmh 29.75 in1007.5 mb 0.00 in0.0 mm 0.00 in0.0 mm 0.54 in13.7 mm
12:55 PM 64.3°F17.9°C 62.2°F16.8°C 93% 9.3 mph S15.0 kmh S 13.4 mph21.6 kmh 29.75 in1007.5 mb 0.00 in0.0 mm 0.00 in0.0 mm 0.54 in13.7 mm
01:00 PM 64.3°F17.9°C 62.2°F16.8°C 93% 10.0 mph S16.1 kmh S 13.4 mph21.6 kmh 29.75 in1007.5 mb 0.00 in0.0 mm 0.00 in0.0 mm 0.54 in13.7 mm
01:05 PM 64.5°F18.1°C 62.4°F16.9°C 93% 10.1 mph SSW16.3 kmh SSW 13.1 mph21.1 kmh 29.75 in1007.5 mb 0.00 in0.0 mm 0.00 in0.0 mm 0.54 in13.7 mm
01:10 PM 64.7°F18.2°C 62.6°F17.0°C 93% 8.7 mph SSW14.0 kmh SSW 14.6 mph23.5 kmh 29.75 in1007.5 mb 0.00 in0.0 mm 0.00 in0.0 mm 0.54 in13.7 mm
01:15 PM 64.8°F18.2°C 62.8°F17.1°C 93% 8.2 mph S13.2 kmh S 14.6 mph23.5 kmh 29.75 in1007.5 mb 0.00 in0.0 mm 0.00 in0.0 mm 0.54 in13.7 mm
01:20 PM 65.0°F18.3°C 62.6°F17.0°C 92% 8.9 mph S14.3 kmh S 13.4 mph21.6 kmh 29.73 in1006.8 mb 0.00 in0.0 mm 0.00 in0.0 mm 0.54 in13.7 mm
01:25 PM 65.6°F18.7°C 63.2°F17.3°C 92% 9.8 mph SSW15.8 kmh SSW 13.7 mph22.0 kmh 29.73 in1006.8 mb 0.00 in0.0 mm 0.00 in0.0 mm 0.54 in13.7 mm
01:30 PM 65.8°F18.8°C 63.4°F17.4°C 92% 9.6 mph S15.4 kmh S 13.7 mph22.0 kmh 29.73 in1006.8 mb 0.00 in0.0 mm 0.00 in0.0 mm 0.54 in13.7 mm
01:35 PM 65.9°F18.8°C 63.5°F17.5°C 92% 7.4 mph SSW11.9 kmh SSW 11.6 mph18.7 kmh 29.73 in1006.8 mb 0.00 in0.0 mm 0.00 in0.0 mm 0.54 in13.7 mm
01:40 PM 66.1°F18.9°C 63.7°F17.6°C 92% 8.4 mph SSW13.5 kmh SSW 11.6 mph18.7 kmh 29.73 in1006.8 mb 0.00 in0.0 mm 0.00 in0.0 mm 0.54 in13.7 mm
01:45 PM 66.1°F18.9°C 63.7°F17.6°C 92% 8.9 mph SSW14.3 kmh SSW 13.1 mph21.1 kmh 29.73 in1006.8 mb 0.00 in0.0 mm 0.00 in0.0 mm 0.54 in13.7 mm
01:50 PM 66.3°F19.1°C 63.6°F17.6°C 91% 8.2 mph S13.2 kmh S 13.1 mph21.1 kmh 29.73 in1006.8 mb 0.00 in0.0 mm 0.00 in0.0 mm 0.54 in13.7 mm
01:55 PM 66.3°F19.1°C 63.6°F17.6°C 91% 7.7 mph S12.4 kmh S 9.8 mph15.8 kmh 29.73 in1006.8 mb 0.00 in0.0 mm 0.00 in0.0 mm 0.54 in13.7 mm
02:00 PM 66.7°F19.3°C 63.9°F17.7°C 91% 5.8 mph S9.3 kmh S 9.8 mph15.8 kmh 29.73 in1006.8 mb 0.00 in0.0 mm 0.00 in0.0 mm 0.54 in13.7 mm
02:05 PM 66.7°F19.3°C 63.9°F17.7°C 91% 4.7 mph SSE7.6 kmh SSE 8.0 mph12.9 kmh 29.73 in1006.8 mb 0.00 in0.0 mm 0.00 in0.0 mm 0.54 in13.7 mm
02:10 PM 66.8°F19.3°C 63.8°F17.7°C 90% 5.9 mph S9.5 kmh S 11.3 mph18.2 kmh 29.73 in1006.8 mb 0.00 in0.0 mm 0.00 in0.0 mm 0.54 in13.7 mm
02:15 PM 66.8°F19.3°C 63.8°F17.7°C 90% 7.9 mph S12.7 kmh S 11.3 mph18.2 kmh 29.73 in1006.8 mb 0.00 in0.0 mm 0.00 in0.0 mm 0.54 in13.7 mm
02:20 PM 66.8°F19.3°C 63.8°F17.7°C 90% 8.1 mph S13.0 kmh S 11.3 mph18.2 kmh 29.73 in1006.8 mb 0.00 in0.0 mm 0.00 in0.0 mm 0.54 in13.7 mm
02:25 PM 67.0°F19.4°C 63.7°F17.6°C 89% 7.9 mph SSW12.7 kmh SSW 12.2 mph19.6 kmh 29.73 in1006.8 mb 0.00 in0.0 mm 0.00 in0.0 mm 0.54 in13.7 mm
02:30 PM 67.2°F19.6°C 63.8°F17.7°C 89% 8.7 mph SSW14.0 kmh SSW 12.2 mph19.6 kmh 29.73 in1006.8 mb 0.00 in0.0 mm 0.00 in0.0 mm 0.54 in13.7 mm
02:35 PM 67.4°F19.7°C 64.0°F17.8°C 89% 8.8 mph SSW14.2 kmh SSW 14.3 mph23.0 kmh 29.73 in1006.8 mb 0.00 in0.0 mm 0.00 in0.0 mm 0.54 in13.7 mm
02:40 PM 67.6°F19.8°C 63.9°F17.7°C 88% 9.4 mph S15.1 kmh S 14.3 mph23.0 kmh 29.73 in1006.8 mb 0.00 in0.0 mm 0.00 in0.0 mm 0.54 in13.7 mm
02:45 PM 67.9°F19.9°C 64.2°F17.9°C 88% 8.8 mph S14.2 kmh S 11.6 mph18.7 kmh 29.73 in1006.8 mb 0.00 in0.0 mm 0.00 in0.0 mm 0.54 in13.7 mm
02:50 PM 68.4°F20.2°C 64.8°F18.2°C 88% 8.1 mph S13.0 kmh S 13.7 mph22.0 kmh 29.70 in1005.8 mb 0.00 in0.0 mm 0.00 in0.0 mm 0.54 in13.7 mm
02:55 PM 68.8°F20.4°C 64.8°F18.2°C 87% 9.0 mph S14.5 kmh S 13.7 mph22.0 kmh 29.70 in1005.8 mb 0.00 in0.0 mm 0.00 in0.0 mm 0.54 in13.7 mm
03:00 PM 68.8°F20.4°C 64.4°F18.0°C 86% 9.8 mph S15.8 kmh S 14.6 mph23.5 kmh 29.70 in1005.8 mb 0.00 in0.0 mm 0.00 in0.0 mm 0.54 in13.7 mm
03:05 PM 68.6°F20.3°C 63.9°F17.7°C 85% 9.1 mph S14.6 kmh S 14.6 mph23.5 kmh 29.70 in1005.8 mb 0.00 in0.0 mm 0.00 in0.0 mm 0.54 in13.7 mm
03:10 PM 68.8°F20.4°C 64.1°F17.8°C 85% 9.2 mph SSE14.8 kmh SSE 16.1 mph25.9 kmh 29.70 in1005.8 mb 0.00 in0.0 mm 0.00 in0.0 mm 0.54 in13.7 mm
03:15 PM 69.2°F20.7°C 64.1°F17.8°C 84% 9.1 mph SSE14.6 kmh SSE 16.1 mph25.9 kmh 29.70 in1005.8 mb 0.00 in0.0 mm 0.00 in0.0 mm 0.54 in13.7 mm
03:20 PM 69.3°F20.7°C 64.0°F17.8°C 83% 8.5 mph S13.7 kmh S 10.7 mph17.2 kmh 29.70 in1005.8 mb 0.00 in0.0 mm 0.00 in0.0 mm 0.54 in13.7 mm
03:25 PM 69.3°F20.7°C 64.0°F17.8°C 83% 8.3 mph S13.4 kmh S 10.7 mph17.2 kmh 29.70 in1005.8 mb 0.00 in0.0 mm 0.00 in0.0 mm 0.54 in13.7 mm
03:30 PM 69.0°F20.6°C 63.3°F17.4°C 82% 9.2 mph SSW14.8 kmh SSW 14.0 mph22.5 kmh 29.70 in1005.8 mb 0.00 in0.0 mm 0.00 in0.0 mm 0.54 in13.7 mm
03:35 PM 69.0°F20.6°C 62.9°F17.2°C 81% 9.3 mph SSW15.0 kmh SSW 14.0 mph22.5 kmh 29.70 in1005.8 mb 0.00 in0.0 mm 0.00 in0.0 mm 0.54 in13.7 mm
03:40 PM 69.0°F20.6°C 62.9°F17.2°C 81% 8.5 mph SSW13.7 kmh SSW 14.3 mph23.0 kmh 29.70 in1005.8 mb 0.00 in0.0 mm 0.00 in0.0 mm 0.54 in13.7 mm
03:45 PM 69.0°F20.6°C 62.9°F17.2°C 81% 10.0 mph SSW16.1 kmh SSW 14.3 mph23.0 kmh 29.70 in1005.8 mb 0.00 in0.0 mm 0.00 in0.0 mm 0.54 in13.7 mm
03:50 PM 69.2°F20.7°C 63.1°F17.3°C 81% 10.0 mph S16.1 kmh S 13.4 mph21.6 kmh 29.70 in1005.8 mb 0.00 in0.0 mm 0.00 in0.0 mm 0.54 in13.7 mm
03:55 PM 70.1°F21.2°C 63.6°F17.6°C 80% 8.5 mph S13.7 kmh S 13.4 mph21.6 kmh 29.70 in1005.8 mb 0.00 in0.0 mm 0.00 in0.0 mm 0.54 in13.7 mm
04:00 PM 70.6°F21.4°C 64.1°F17.8°C 80% 7.1 mph S11.4 kmh S 10.1 mph16.3 kmh 29.70 in1005.8 mb 0.00 in0.0 mm 0.00 in0.0 mm 0.54 in13.7 mm
04:05 PM 70.8°F21.6°C 64.0°F17.8°C 79% 7.5 mph S12.1 kmh S 12.8 mph20.6 kmh 29.70 in1005.8 mb 0.00 in0.0 mm 0.00 in0.0 mm 0.54 in13.7 mm
04:10 PM 71.0°F21.7°C 63.8°F17.7°C 78% 9.2 mph S14.8 kmh S 12.8 mph20.6 kmh 29.70 in1005.8 mb 0.00 in0.0 mm 0.00 in0.0 mm 0.54 in13.7 mm
04:15 PM 70.8°F21.6°C 63.2°F17.3°C 77% 10.8 mph S17.4 kmh S 14.3 mph23.0 kmh 29.70 in1005.8 mb 0.00 in0.0 mm 0.00 in0.0 mm 0.54 in13.7 mm
04:20 PM 70.3°F21.3°C 62.7°F17.1°C 77% 10.6 mph S17.1 kmh S 14.3 mph23.0 kmh 29.70 in1005.8 mb 0.00 in0.0 mm 0.00 in0.0 mm 0.54 in13.7 mm
04:25 PM 70.4°F21.3°C 62.5°F16.9°C 76% 10.3 mph SSW16.6 kmh SSW 14.6 mph23.5 kmh 29.70 in1005.8 mb 0.00 in0.0 mm 0.00 in0.0 mm 0.54 in13.7 mm
04:30 PM 70.3°F21.3°C 62.3°F16.8°C 76% 10.7 mph S17.2 kmh S 16.7 mph26.9 kmh 29.70 in1005.8 mb 0.00 in0.0 mm 0.00 in0.0 mm 0.54 in13.7 mm
04:35 PM 69.7°F20.9°C 61.8°F16.6°C 76% 9.8 mph S15.8 kmh S 16.7 mph26.9 kmh 29.70 in1005.8 mb 0.00 in0.0 mm 0.00 in0.0 mm 0.54 in13.7 mm
04:40 PM 69.5°F20.8°C 61.6°F16.4°C 76% 8.8 mph S14.2 kmh S 13.7 mph22.0 kmh 29.70 in1005.8 mb 0.00 in0.0 mm 0.00 in0.0 mm 0.54 in13.7 mm
04:45 PM 69.0°F20.6°C 61.1°F16.2°C 76% 9.2 mph SSW14.8 kmh SSW 14.3 mph23.0 kmh 29.70 in1005.8 mb 0.00 in0.0 mm 0.00 in0.0 mm 0.54 in13.7 mm
04:50 PM 68.6°F20.3°C 60.8°F16.0°C 76% 10.1 mph S16.3 kmh S 14.3 mph23.0 kmh 29.70 in1005.8 mb 0.00 in0.0 mm 0.00 in0.0 mm 0.54 in13.7 mm
04:55 PM 68.4°F20.2°C 61.0°F16.1°C 77% 10.7 mph S17.2 kmh S 14.3 mph23.0 kmh 29.70 in1005.8 mb 0.00 in0.0 mm 0.00 in0.0 mm 0.54 in13.7 mm
05:00 PM 68.3°F20.2°C 60.8°F16.0°C 77% 9.0 mph S14.5 kmh S 14.0 mph22.5 kmh 29.70 in1005.8 mb 0.00 in0.0 mm 0.00 in0.0 mm 0.54 in13.7 mm
05:05 PM 67.9°F19.9°C 60.4°F15.8°C 77% 7.7 mph SW12.4 kmh SW 14.0 mph22.5 kmh 29.70 in1005.8 mb 0.00 in0.0 mm 0.00 in0.0 mm 0.54 in13.7 mm
05:10 PM 67.4°F19.7°C 59.9°F15.5°C 77% 7.2 mph WSW11.6 kmh WSW 14.0 mph22.5 kmh 29.70 in1005.8 mb 0.00 in0.0 mm 0.00 in0.0 mm 0.54 in13.7 mm
05:15 PM 67.0°F19.4°C 59.9°F15.5°C 78% 7.0 mph WSW11.3 kmh WSW 14.3 mph23.0 kmh 29.70 in1005.8 mb 0.00 in0.0 mm 0.00 in0.0 mm 0.54 in13.7 mm
05:20 PM 66.5°F19.2°C 59.8°F15.4°C 79% 8.3 mph W13.4 kmh W 14.3 mph23.0 kmh 29.70 in1005.8 mb 0.00 in0.0 mm 0.00 in0.0 mm 0.54 in13.7 mm
05:25 PM 66.3°F19.1°C 59.9°F15.5°C 80% 9.3 mph W15.0 kmh W 14.3 mph23.0 kmh 29.70 in1005.8 mb 0.00 in0.0 mm 0.00 in0.0 mm 0.54 in13.7 mm
05:30 PM 65.9°F18.8°C 59.9°F15.5°C 81% 6.2 mph W10.0 kmh W 10.4 mph16.7 kmh 29.70 in1005.8 mb 0.00 in0.0 mm 0.00 in0.0 mm 0.54 in13.7 mm
05:35 PM 65.6°F18.7°C 59.9°F15.5°C 82% 3.4 mph W5.5 kmh W 8.3 mph13.4 kmh 29.70 in1005.8 mb 0.00 in0.0 mm 0.00 in0.0 mm 0.54 in13.7 mm
05:40 PM 65.4°F18.6°C 59.8°F15.4°C 82% 3.5 mph WNW5.6 kmh WNW 6.5 mph10.5 kmh 29.70 in1005.8 mb 0.00 in0.0 mm 0.00 in0.0 mm 0.54 in13.7 mm
05:45 PM 65.0°F18.3°C 59.4°F15.2°C 82% 4.0 mph NW6.4 kmh NW 6.5 mph10.5 kmh 29.70 in1005.8 mb 0.00 in0.0 mm 0.00 in0.0 mm 0.54 in13.7 mm
05:50 PM 65.0°F18.3°C 59.4°F15.2°C 82% 1.9 mph NW3.1 kmh NW 6.2 mph10.0 kmh 29.70 in1005.8 mb 0.00 in0.0 mm 0.00 in0.0 mm 0.54 in13.7 mm
05:55 PM 64.8°F18.2°C 59.6°F15.3°C 83% 1.6 mph WNW2.6 kmh WNW 5.1 mph8.2 kmh 29.70 in1005.8 mb 0.00 in0.0 mm 0.00 in0.0 mm 0.54 in13.7 mm
06:00 PM 64.7°F18.2°C 59.4°F15.2°C 83% 2.5 mph W4.0 kmh W 5.1 mph8.2 kmh 29.70 in1005.8 mb 0.00 in0.0 mm 0.00 in0.0 mm 0.54 in13.7 mm
06:05 PM 64.7°F18.2°C 59.4°F15.2°C 83% 3.5 mph WNW5.6 kmh WNW 4.5 mph7.2 kmh 29.70 in1005.8 mb 0.00 in0.0 mm 0.00 in0.0 mm 0.54 in13.7 mm
06:10 PM 64.3°F17.9°C 59.0°F15.0°C 83% 3.0 mph W4.8 kmh W 5.4 mph8.7 kmh 29.70 in1005.8 mb 0.00 in0.0 mm 0.00 in0.0 mm 0.54 in13.7 mm
06:15 PM 64.3°F17.9°C 59.4°F15.2°C 84% 2.4 mph WSW3.9 kmh WSW 5.4 mph8.7 kmh 29.70 in1005.8 mb 0.00 in0.0 mm 0.00 in0.0 mm 0.54 in13.7 mm
06:20 PM 64.1°F17.8°C 59.2°F15.1°C 84% 1.6 mph SW2.6 kmh SW 3.6 mph5.8 kmh 29.70 in1005.8 mb 0.00 in0.0 mm 0.00 in0.0 mm 0.54 in13.7 mm
06:25 PM 64.1°F17.8°C 59.2°F15.1°C 84% 2.4 mph WSW3.9 kmh WSW 5.1 mph8.2 kmh 29.70 in1005.8 mb 0.00 in0.0 mm 0.00 in0.0 mm 0.54 in13.7 mm
06:30 PM 64.0°F17.8°C 59.0°F15.0°C 84% 3.0 mph W4.8 kmh W 5.1 mph8.2 kmh 29.70 in1005.8 mb 0.00 in0.0 mm 0.00 in0.0 mm 0.54 in13.7 mm
06:35 PM 63.8°F17.7°C 58.8°F14.9°C 84% 2.8 mph W4.5 kmh W 4.5 mph7.2 kmh 29.70 in1005.8 mb 0.00 in0.0 mm 0.00 in0.0 mm 0.54 in13.7 mm
06:40 PM 63.6°F17.6°C 58.3°F14.6°C 83% 3.4 mph W5.5 kmh W 5.4 mph8.7 kmh 29.70 in1005.8 mb 0.00 in0.0 mm 0.00 in0.0 mm 0.54 in13.7 mm
06:45 PM 63.4°F17.4°C 58.2°F14.6°C 83% 5.2 mph W8.4 kmh W 8.3 mph13.4 kmh 29.70 in1005.8 mb 0.00 in0.0 mm 0.00 in0.0 mm 0.54 in13.7 mm
06:50 PM 63.4°F17.4°C 58.2°F14.6°C 83% 5.2 mph W8.4 kmh W 8.3 mph13.4 kmh 29.70 in1005.8 mb 0.00 in0.0 mm 0.00 in0.0 mm 0.54 in13.7 mm
06:55 PM 62.9°F17.2°C 58.0°F14.4°C 84% 4.7 mph WNW7.6 kmh WNW 8.3 mph13.4 kmh 29.70 in1005.8 mb 0.00 in0.0 mm 0.00 in0.0 mm 0.54 in13.7 mm
07:00 PM 62.7°F17.1°C 58.1°F14.5°C 85% 5.6 mph WNW9.0 kmh WNW 7.4 mph11.9 kmh 29.70 in1005.8 mb 0.00 in0.0 mm 0.00 in0.0 mm 0.54 in13.7 mm
07:05 PM 62.5°F16.9°C 57.9°F14.4°C 85% 5.5 mph NW8.9 kmh NW 7.4 mph11.9 kmh 29.70 in1005.8 mb 0.00 in0.0 mm 0.00 in0.0 mm 0.54 in13.7 mm
07:10 PM 62.3°F16.8°C 58.1°F14.5°C 86% 5.2 mph WNW8.4 kmh WNW 7.4 mph11.9 kmh 29.70 in1005.8 mb 0.00 in0.0 mm 0.00 in0.0 mm 0.54 in13.7 mm
07:15 PM 62.3°F16.8°C 58.1°F14.5°C 86% 4.4 mph WNW7.1 kmh WNW 7.4 mph11.9 kmh 29.70 in1005.8 mb 0.04 in1.0 mm 0.48 in12.2 mm 0.58 in14.7 mm
07:20 PM 62.2°F16.8°C 58.2°F14.6°C 87% 3.9 mph W6.3 kmh W 5.4 mph8.7 kmh 29.70 in1005.8 mb 0.04 in1.0 mm 0.00 in0.0 mm 0.58 in14.7 mm
07:25 PM 61.8°F16.6°C 57.9°F14.4°C 87% 4.5 mph W7.2 kmh W 10.1 mph16.3 kmh 29.70 in1005.8 mb 0.04 in1.0 mm 0.00 in0.0 mm 0.58 in14.7 mm
07:30 PM 61.6°F16.4°C 57.7°F14.3°C 87% 3.8 mph WNW6.1 kmh WNW 10.1 mph16.3 kmh 29.70 in1005.8 mb 0.04 in1.0 mm 0.00 in0.0 mm 0.58 in14.7 mm
07:35 PM 61.4°F16.3°C 57.5°F14.2°C 87% 2.1 mph NW3.4 kmh NW 4.8 mph7.7 kmh 29.70 in1005.8 mb 0.04 in1.0 mm 0.00 in0.0 mm 0.58 in14.7 mm
07:40 PM 61.4°F16.3°C 57.8°F14.3°C 88% 2.5 mph WNW4.0 kmh WNW 6.5 mph10.5 kmh 29.70 in1005.8 mb 0.08 in2.0 mm 0.48 in12.2 mm 0.62 in15.7 mm
07:45 PM 61.1°F16.2°C 57.5°F14.2°C 88% 3.6 mph W5.8 kmh W 6.5 mph10.5 kmh 29.70 in1005.8 mb 0.08 in2.0 mm 0.00 in0.0 mm 0.62 in15.7 mm
07:50 PM 60.9°F16.1°C 57.3°F14.1°C 88% 2.5 mph W4.0 kmh W 5.1 mph8.2 kmh 29.70 in1005.8 mb 0.08 in2.0 mm 0.00 in0.0 mm 0.62 in15.7 mm
07:55 PM 60.7°F15.9°C 57.1°F13.9°C 88% 1.4 mph WNW2.3 kmh WNW 3.6 mph5.8 kmh 29.70 in1005.8 mb 0.08 in2.0 mm 0.00 in0.0 mm 0.62 in15.7 mm
08:00 PM 60.7°F15.9°C 57.4°F14.1°C 89% 0.3 mph WSW0.5 kmh WSW 3.6 mph5.8 kmh 29.70 in1005.8 mb 0.08 in2.0 mm 0.00 in0.0 mm 0.62 in15.7 mm
08:05 PM 60.5°F15.8°C 57.3°F14.1°C 89% Calm Calm -- 29.70 in1005.8 mb 0.08 in2.0 mm 0.00 in0.0 mm 0.62 in15.7 mm
08:10 PM 60.5°F15.8°C 57.3°F14.1°C 89% Calm Calm -- 29.70 in1005.8 mb 0.08 in2.0 mm 0.00 in0.0 mm 0.62 in15.7 mm
08:15 PM 60.3°F15.7°C 57.1°F13.9°C 89% Calm Calm -- 29.70 in1005.8 mb 0.04 in1.0 mm 0.00 in0.0 mm 0.62 in15.7 mm
08:20 PM 60.3°F15.7°C 57.1°F13.9°C 89% 0.2 mph WSW0.3 kmh WSW 1.2 mph1.9 kmh 29.70 in1005.8 mb 0.04 in1.0 mm 0.00 in0.0 mm 0.62 in15.7 mm
08:25 PM 60.3°F15.7°C 57.1°F13.9°C 89% 0.2 mph WSW0.3 kmh WSW 1.2 mph1.9 kmh 29.70 in1005.8 mb 0.04 in1.0 mm 0.00 in0.0 mm 0.62 in15.7 mm
08:30 PM 60.3°F15.7°C 57.4°F14.1°C 90% Calm Calm -- 29.70 in1005.8 mb 0.04 in1.0 mm 0.00 in0.0 mm 0.62 in15.7 mm
08:35 PM 60.3°F15.7°C 57.4°F14.1°C 90% 0.9 mph S1.4 kmh S 3.9 mph6.3 kmh 29.70 in1005.8 mb 0.04 in1.0 mm 0.00 in0.0 mm 0.62 in15.7 mm
08:40 PM 60.3°F15.7°C 57.4°F14.1°C 90% 1.2 mph S1.9 kmh S 3.9 mph6.3 kmh 29.70 in1005.8 mb 0.00 in0.0 mm 0.00 in0.0 mm 0.62 in15.7 mm
08:45 PM 60.3°F15.7°C 57.4°F14.1°C 90% 1.4 mph SSE2.3 kmh SSE 3.3 mph5.3 kmh 29.70 in1005.8 mb 0.00 in0.0 mm 0.00 in0.0 mm 0.62 in15.7 mm
08:50 PM 60.3°F15.7°C 57.4°F14.1°C 90% 1.3 mph SE2.1 kmh SE 3.3 mph5.3 kmh 29.70 in1005.8 mb 0.00 in0.0 mm 0.00 in0.0 mm 0.62 in15.7 mm
08:55 PM 60.3°F15.7°C 57.7°F14.3°C 91% 0.7 mph SSE1.1 kmh SSE 3.3 mph5.3 kmh 29.70 in1005.8 mb 0.00 in0.0 mm 0.00 in0.0 mm 0.62 in15.7 mm
09:00 PM 60.3°F15.7°C 57.7°F14.3°C 91% 0.6 mph SE1.0 kmh SE 2.1 mph3.4 kmh 29.70 in1005.8 mb 0.00 in0.0 mm 0.00 in0.0 mm 0.62 in15.7 mm
09:05 PM 60.3°F15.7°C 57.7°F14.3°C 91% 0.4 mph SE0.6 kmh SE 2.1 mph3.4 kmh 29.70 in1005.8 mb 0.00 in0.0 mm 0.00 in0.0 mm 0.62 in15.7 mm
09:10 PM 60.3°F15.7°C 57.7°F14.3°C 91% Calm Calm -- 29.70 in1005.8 mb 0.00 in0.0 mm 0.00 in0.0 mm 0.62 in15.7 mm
09:15 PM 60.3°F15.7°C 57.7°F14.3°C 91% 0.2 mph SE0.3 kmh SE 1.5 mph2.4 kmh 29.70 in1005.8 mb 0.00 in0.0 mm 0.00 in0.0 mm 0.62 in15.7 mm
09:20 PM 60.3°F15.7°C 57.7°F14.3°C 91% 0.4 mph SE0.6 kmh SE 1.5 mph2.4 kmh 29.70 in1005.8 mb 0.00 in0.0 mm 0.00 in0.0 mm 0.62 in15.7 mm
09:25 PM 60.3°F15.7°C 57.7°F14.3°C 91% 0.6 mph SSE1.0 kmh SSE 2.7 mph4.3 kmh 29.70 in1005.8 mb 0.00 in0.0 mm 0.00 in0.0 mm 0.62 in15.7 mm
09:30 PM 60.3°F15.7°C 57.7°F14.3°C 91% 0.7 mph S1.1 kmh S 2.7 mph4.3 kmh 29.70 in1005.8 mb 0.00 in0.0 mm 0.00 in0.0 mm 0.62 in15.7 mm
09:35 PM 60.3°F15.7°C 58.0°F14.4°C 92% 1.3 mph SW2.1 kmh SW 2.7 mph4.3 kmh 29.70 in1005.8 mb 0.00 in0.0 mm 0.00 in0.0 mm 0.62 in15.7 mm
09:40 PM 60.3°F15.7°C 58.0°F14.4°C 92% 1.0 mph SW1.6 kmh SW 2.7 mph4.3 kmh 29.70 in1005.8 mb 0.00 in0.0 mm 0.00 in0.0 mm 0.62 in15.7 mm
09:45 PM 60.2°F15.7°C 57.8°F14.3°C 92% 0.1 mph WSW0.2 kmh WSW 1.8 mph2.9 kmh 29.70 in1005.8 mb 0.00 in0.0 mm 0.00 in0.0 mm 0.62 in15.7 mm
09:50 PM 60.2°F15.7°C 57.8°F14.3°C 92% Calm Calm -- 29.70 in1005.8 mb 0.00 in0.0 mm 0.00 in0.0 mm 0.62 in15.7 mm
09:55 PM 60.2°F15.7°C 57.8°F14.3°C 92% Calm Calm -- 29.70 in1005.8 mb 0.00 in0.0 mm 0.00 in0.0 mm 0.62 in15.7 mm
10:00 PM 60.2°F15.7°C 57.8°F14.3°C 92% Calm Calm -- 29.70 in1005.8 mb 0.00 in0.0 mm 0.00 in0.0 mm 0.62 in15.7 mm
10:05 PM 60.2°F15.7°C 57.8°F14.3°C 92% Calm Calm -- 29.70 in1005.8 mb 0.00 in0.0 mm 0.00 in0.0 mm 0.62 in15.7 mm
10:10 PM 60.2°F15.7°C 57.8°F14.3°C 92% Calm Calm -- 29.70 in1005.8 mb 0.00 in0.0 mm 0.00 in0.0 mm 0.62 in15.7 mm
10:15 PM 60.2°F15.7°C 57.8°F14.3°C 92% 0.6 mph S1.0 kmh S 1.8 mph2.9 kmh 29.70 in1005.8 mb 0.00 in0.0 mm 0.00 in0.0 mm 0.62 in15.7 mm
10:20 PM 60.2°F15.7°C 57.8°F14.3°C 92% 0.6 mph S1.0 kmh S 1.8 mph2.9 kmh 29.70 in1005.8 mb 0.00 in0.0 mm 0.00 in0.0 mm 0.62 in15.7 mm
10:25 PM 60.2°F15.7°C 57.8°F14.3°C 92% 0.4 mph S0.6 kmh S 1.8 mph2.9 kmh 29.70 in1005.8 mb 0.00 in0.0 mm 0.00 in0.0 mm 0.62 in15.7 mm
10:30 PM 60.2°F15.7°C 57.8°F14.3°C 92% 1.2 mph SSW1.9 kmh SSW 2.7 mph4.3 kmh 29.70 in1005.8 mb 0.00 in0.0 mm 0.00 in0.0 mm 0.62 in15.7 mm
10:35 PM 60.2°F15.7°C 57.8°F14.3°C 92% 1.0 mph SW1.6 kmh SW 2.7 mph4.3 kmh 29.70 in1005.8 mb 0.00 in0.0 mm 0.00 in0.0 mm 0.62 in15.7 mm
10:40 PM 60.2°F15.7°C 57.8°F14.3°C 92% 1.3 mph SW2.1 kmh SW 4.2 mph6.8 kmh 29.70 in1005.8 mb 0.00 in0.0 mm 0.00 in0.0 mm 0.62 in15.7 mm
10:45 PM 60.2°F15.7°C 57.8°F14.3°C 92% 1.4 mph SW2.3 kmh SW 4.2 mph6.8 kmh 29.70 in1005.8 mb 0.00 in0.0 mm 0.00 in0.0 mm 0.62 in15.7 mm
10:50 PM 60.0°F15.6°C 58.0°F14.4°C 93% 0.8 mph WSW1.3 kmh WSW 1.8 mph2.9 kmh 29.70 in1005.8 mb 0.00 in0.0 mm 0.00 in0.0 mm 0.62 in15.7 mm
10:55 PM 60.0°F15.6°C 58.0°F14.4°C 93% 0.6 mph SW1.0 kmh SW 3.0 mph4.8 kmh 29.70 in1005.8 mb 0.00 in0.0 mm 0.00 in0.0 mm 0.62 in15.7 mm
11:00 PM 60.0°F15.6°C 58.0°F14.4°C 93% 0.6 mph SSW1.0 kmh SSW 3.0 mph4.8 kmh 29.70 in1005.8 mb 0.04 in1.0 mm 0.04 in1.0 mm 0.50 in12.7 mm
11:05 PM 60.0°F15.6°C 58.0°F14.4°C 93% 0.5 mph S0.8 kmh S 3.9 mph6.3 kmh 29.70 in1005.8 mb 0.04 in1.0 mm 0.00 in0.0 mm 0.50 in12.7 mm
11:10 PM 60.0°F15.6°C 58.0°F14.4°C 93% 1.0 mph SSW1.6 kmh SSW 3.9 mph6.3 kmh 29.70 in1005.8 mb 0.08 in2.0 mm 0.48 in12.2 mm 0.04 in1.0 mm
11:15 PM 60.0°F15.6°C 58.0°F14.4°C 93% 1.8 mph SSW2.9 kmh SSW 4.2 mph6.8 kmh 29.70 in1005.8 mb 0.08 in2.0 mm 0.00 in0.0 mm 0.04 in1.0 mm
11:20 PM 59.8°F15.4°C 57.8°F14.3°C 93% 2.2 mph S3.5 kmh S 4.2 mph6.8 kmh 29.70 in1005.8 mb 0.08 in2.0 mm 0.00 in0.0 mm 0.04 in1.0 mm
11:25 PM 59.8°F15.4°C 57.8°F14.3°C 93% 2.0 mph S3.2 kmh S 4.2 mph6.8 kmh 29.70 in1005.8 mb 0.08 in2.0 mm 0.00 in0.0 mm 0.04 in1.0 mm
11:30 PM 59.8°F15.4°C 57.8°F14.3°C 93% 2.8 mph SSW4.5 kmh SSW 5.4 mph8.7 kmh 29.70 in1005.8 mb 0.08 in2.0 mm 0.00 in0.0 mm 0.04 in1.0 mm
11:35 PM 59.8°F15.4°C 57.8°F14.3°C 93% 3.2 mph S5.1 kmh S 5.4 mph8.7 kmh 29.67 in1004.7 mb 0.08 in2.0 mm 0.00 in0.0 mm 0.04 in1.0 mm
11:40 PM 59.8°F15.4°C 57.8°F14.3°C 93% 1.2 mph S1.9 kmh S 3.9 mph6.3 kmh 29.67 in1004.7 mb 0.08 in2.0 mm 0.00 in0.0 mm 0.04 in1.0 mm
11:45 PM 59.8°F15.4°C 57.8°F14.3°C 93% 0.6 mph S1.0 kmh S 1.8 mph2.9 kmh 29.67 in1004.7 mb 0.08 in2.0 mm 0.00 in0.0 mm 0.04 in1.0 mm
11:50 PM 59.6°F15.3°C 57.6°F14.2°C 93% 1.4 mph S2.3 kmh S 3.6 mph5.8 kmh 29.67 in1004.7 mb 0.08 in2.0 mm 0.00 in0.0 mm 0.04 in1.0 mm
11:55 PM 59.6°F15.3°C 57.6°F14.2°C 93% 2.0 mph S3.2 kmh S 4.8 mph7.7 kmh 29.67 in1004.7 mb 0.08 in2.0 mm 0.00 in0.0 mm 0.04 in1.0 mm